Terminal Aerodrome Forecast
Issued by NWS

Home | Current Version | Previous Version | Text Only | Print | Product List | Glossary On
Versions: 1 2 3 4 5 6 7 8 9 10 11 12 13 14 15 16
000
FTUS43 KGRR 202340
TAFMKG
TAF
KMKG 202340Z 2100/2124 19005KT 5SM BR BKN250
     FM210400 19004KT 2SM BR BKN250
     FM210800 17003KT 3/4SM BR OVC007
     FM211800 15006KT 1 1/2SM -DZ BR OVC005=

USA.gov is the U.S. government's official web portal to all federal, state and local government web resources and services.